Terminal Aerodrome Forecast
Issued by NWS

Home | Current Version | Previous Version | Text Only | Print | Product List | Glossary On
Versions: 1 2 3 4 5 6 7 8 9 10 11 12 13 14 15 16 17
024
FTUS41 KILN 212338
TAFLCK
TAF
KLCK 212338Z 2200/2224 17004KT P6SM BKN080 OVC120
      TEMPO 2204/2207 -SHRA
     FM221000 10003KT P6SM SCT080 OVC140
     FM221700 07007KT P6SM OVC060
     FM222000 05007KT 6SM -SHRA BR OVC040
     FM222200 05009KT 3SM -SHRA BR OVC012=

USA.gov is the U.S. government's official web portal to all federal, state and local government web resources and services.